Time;durP1;ratioP1;P1;durP2;ratioP2;P2;SDS_P1;SDS_P2;PMS_P1;PMS_P2;Temp;Humidity;BMP_temperature;BMP_pressure;BME280_temperature;BME280_humidity;BME280_pressure;Samples;Min_cycle;Max_cycle;Signal;HPM_P1;HPM_P2
2023/01/06 00:01:17;;;;;;;6.80;2.63;;;7.70;99.90;;;;;;4229484;28;20035;-62
2023/01/06 00:03:18;;;;;;;6.47;2.23;;;7.70;99.90;;;;;;4228257;28;20040;-60
2023/01/06 00:05:19;;;;;;;5.77;2.97;;;7.70;99.90;;;;;;4228741;28;20044;-60
2023/01/06 00:07:20;;;;;;;6.43;2.80;;;7.60;99.90;;;;;;4228713;28;20019;-61
2023/01/06 00:09:21;;;;;;;6.03;2.03;;;7.60;99.90;;;;;;4229492;28;20036;-63
2023/01/06 00:11:24;;;;;;;3.77;2.53;;;7.60;99.90;;;;;;4228885;28;20120;-63
2023/01/06 00:13:25;;;;;;;3.83;1.77;;;7.60;99.90;;;;;;4229521;28;20043;-63
2023/01/06 00:15:26;;;;;;;3.67;2.10;;;7.60;99.90;;;;;;4228591;28;20023;-59
2023/01/06 00:17:27;;;;;;;6.80;2.00;;;7.60;99.90;;;;;;4228633;28;20039;-59
2023/01/06 00:19:28;;;;;;;3.67;2.40;;;7.50;99.90;;;;;;4228955;28;20023;-60
2023/01/06 00:21:29;;;;;;;5.23;2.20;;;7.60;99.90;;;;;;4228437;28;20058;-59
2023/01/06 00:23:31;;;;;;;2.73;1.80;;;7.50;99.90;;;;;;4229366;28;20027;-60
2023/01/06 00:25:32;;;;;;;3.77;1.47;;;7.50;99.90;;;;;;4227970;28;20019;-60
2023/01/06 00:27:33;;;;;;;5.30;3.17;;;7.50;99.90;;;;;;4229405;28;20129;-61
2023/01/06 00:29:34;;;;;;;5.07;1.97;;;7.50;99.90;;;;;;4227710;28;20036;-61
2023/01/06 00:31:36;;;;;;;8.37;4.10;;;7.50;99.90;;;;;;4227830;28;20615;-61
2023/01/06 00:33:38;;;;;;;5.13;3.10;;;7.50;99.90;;;;;;4227666;28;20040;-61
2023/01/06 00:35:39;;;;;;;8.30;4.00;;;7.50;99.90;;;;;;4229030;28;20048;-61
2023/01/06 00:37:40;;;;;;;4.73;2.43;;;7.50;99.90;;;;;;4228116;28;20426;-61
2023/01/06 00:39:41;;;;;;;5.50;2.33;;;7.40;99.90;;;;;;4229336;28;20035;-61
2023/01/06 00:44:03;;;;;;;5.38;2.42;;;7.40;99.90;;;;;;4229321;28;20732;-62
2023/01/06 00:46:04;;;;;;;2.87;1.60;;;7.40;99.90;;;;;;4227375;28;20085;-61
2023/01/06 00:48:05;;;;;;;3.83;2.47;;;7.40;99.90;;;;;;4228962;28;20429;-62
2023/01/06 00:50:06;;;;;;;3.00;1.33;;;7.40;99.90;;;;;;4227798;28;20032;-61
2023/01/06 00:52:08;;;;;;;6.27;2.10;;;7.40;99.90;;;;;;4228579;28;20040;-61
2023/01/06 00:54:11;;;;;;;5.23;1.60;;;7.50;99.90;;;;;;4228368;28;20069;-61
2023/01/06 00:56:12;;;;;;;6.03;1.70;;;7.50;99.90;;;;;;4227725;28;20028;-63
2023/01/06 00:58:13;;;;;;;3.37;1.70;;;7.50;99.90;;;;;;4227732;28;20035;-62
2023/01/06 01:00:14;;;;;;;2.93;1.40;;;7.40;99.90;;;;;;4226907;28;20467;-62
2023/01/06 01:02:15;;;;;;;3.17;1.30;;;7.40;99.90;;;;;;4228937;28;20032;-62
2023/01/06 01:04:17;;;;;;;2.27;1.50;;;7.40;99.90;;;;;;4227812;28;20019;-61
2023/01/06 01:06:18;;;;;;;1.93;1.37;;;7.40;99.90;;;;;;4228506;28;20089;-60
2023/01/06 01:08:19;;;;;;;1.93;1.33;;;7.40;99.90;;;;;;4227752;28;20027;-61
2023/01/06 01:10:20;;;;;;;2.93;1.60;;;7.40;99.90;;;;;;4228906;28;20027;-61
2023/01/06 01:12:21;;;;;;;2.53;1.80;;;7.30;99.90;;;;;;4226521;28;20127;-59
2023/01/06 01:14:22;;;;;;;2.83;2.37;;;7.30;99.90;;;;;;4228621;28;20028;-61
2023/01/06 01:16:23;;;;;;;3.00;1.53;;;7.30;99.90;;;;;;4214064;28;20020;-58
2023/01/06 01:18:25;;;;;;;5.50;2.07;;;7.40;99.90;;;;;;4220785;28;20560;-63
2023/01/06 01:20:26;;;;;;;2.70;2.00;;;7.40;99.90;;;;;;4226901;28;20039;-63
2023/01/06 01:22:28;;;;;;;4.63;2.30;;;7.40;99.90;;;;;;4227787;28;20089;-62
2023/01/06 01:24:30;;;;;;;5.83;3.07;;;7.40;99.90;;;;;;4227466;28;20081;-60
2023/01/06 01:26:31;;;;;;;5.90;2.40;;;7.40;99.90;;;;;;4227666;28;20123;-62
2023/01/06 01:28:32;;;;;;;2.87;1.80;;;7.50;99.90;;;;;;4228024;28;20085;-61
2023/01/06 01:30:33;;;;;;;2.70;1.60;;;7.50;99.90;;;;;;4227264;28;20081;-60
2023/01/06 01:32:34;;;;;;;3.03;1.73;;;7.50;99.90;;;;;;4228371;28;20039;-61
2023/01/06 01:34:35;;;;;;;5.17;2.53;;;7.50;99.90;;;;;;4227224;28;20100;-61
2023/01/06 01:36:36;;;;;;;5.27;2.17;;;7.40;99.90;;;;;;4228064;28;20032;-61
2023/01/06 01:38:38;;;;;;;5.20;2.57;;;7.40;99.90;;;;;;4227270;28;20016;-61
2023/01/06 01:40:46;;;;;;;3.37;2.07;;;7.30;99.90;;;;;;4228648;28;20027;-61
2023/01/06 01:42:47;;;;;;;2.57;1.93;;;7.20;99.90;;;;;;4226082;28;20031;-61
2023/01/06 01:45:15;;;;;;;3.67;1.83;;;7.20;99.90;;;;;;4227989;28;20032;-59
2023/01/06 01:47:32;;;;;;;5.13;2.13;;;7.10;99.90;;;;;;4219646;28;20105;-61
2023/01/06 01:49:35;;;;;;;3.33;1.70;;;7.10;99.90;;;;;;4227970;28;20027;-62
2023/01/06 01:51:40;;;;;;;3.70;1.60;;;7.10;99.90;;;;;;4226544;28;20380;-61
2023/01/06 01:53:46;;;;;;;2.77;1.57;;;7.00;99.90;;;;;;4228144;28;20036;-62
2023/01/06 01:55:49;;;;;;;2.27;1.40;;;7.00;99.90;;;;;;4226925;28;20035;-60
2023/01/06 01:58:13;;;;;;;6.67;1.80;;;7.00;99.90;;;;;;4228340;28;20035;-61
2023/01/06 02:00:16;;;;;;;3.50;2.27;;;6.90;99.90;;;;;;4226532;28;20047;-60
2023/01/06 02:02:18;;;;;;;1.90;1.63;;;6.90;99.90;;;;;;4227435;28;20077;-60
2023/01/06 02:04:21;;;;;;;3.10;1.80;;;6.80;99.90;;;;;;4226761;28;20492;-61
2023/01/06 02:06:24;;;;;;;3.43;1.70;;;6.80;99.90;;;;;;4227808;28;20089;-61
2023/01/06 02:08:29;;;;;;;1.93;1.33;;;6.80;99.90;;;;;;4226734;28;20085;-61
2023/01/06 02:10:30;;;;;;;4.10;1.37;;;6.80;99.90;;;;;;4228277;28;20032;-61
2023/01/06 02:12:31;;;;;;;4.07;2.13;;;6.80;99.90;;;;;;4227183;28;20047;-61
2023/01/06 02:14:32;;;;;;;4.53;1.60;;;6.70;99.90;;;;;;4227856;28;20541;-61
2023/01/06 02:16:53;;;;;;;5.03;1.97;;;6.70;99.90;;;;;;4227376;28;20065;-62
2023/01/06 02:19:16;;;;;;;4.60;1.87;;;6.70;99.90;;;;;;4227780;28;20027;-62
2023/01/06 02:21:40;;;;;;;2.77;1.63;;;6.60;99.90;;;;;;4226687;28;20027;-60
2023/01/06 02:24:12;;;;;;;2.33;1.57;;;6.60;99.90;;;;;;4227897;28;20032;-60
2023/01/06 02:26:45;;;;;;;3.90;1.90;;;6.60;99.90;;;;;;4226950;28;20776;-61
2023/01/06 02:29:24;;;;;;;3.67;2.03;;;6.60;99.90;;;;;;4231102;28;20494;-60
2023/01/06 02:31:33;;;;;;;3.13;1.77;;;6.50;99.90;;;;;;4230611;28;20401;-61
2023/01/06 02:34:03;;;;;;;3.90;1.93;;;6.50;99.90;;;;;;4230851;28;20032;-61
2023/01/06 02:36:28;;;;;;;3.63;1.83;;;6.50;99.90;;;;;;4230959;28;20039;-61
2023/01/06 02:38:48;;;;;;;7.20;2.20;;;6.50;99.90;;;;;;4200636;28;20092;-60
2023/01/06 02:41:25;;;;;;;2.88;1.73;;;6.50;99.90;;;;;;4214578;28;20097;-61
2023/01/06 02:43:44;;;;;;;4.67;2.13;;;6.50;99.90;;;;;;4217251;28;20024;-60
2023/01/06 02:46:09;;;;;;;4.40;2.27;;;6.50;99.90;;;;;;4230920;28;20028;-61
2023/01/06 02:48:29;;;;;;;1.87;1.47;;;6.50;99.90;;;;;;4229917;28;20349;-59
2023/01/06 02:50:41;;;;;;;4.93;1.40;;;6.50;99.90;;;;;;4230279;28;20031;-60
2023/01/06 02:53:04;;;;;;;2.87;1.67;;;6.50;99.90;;;;;;4229795;28;20040;-61
2023/01/06 02:55:12;;;;;;;2.60;1.87;;;6.50;99.90;;;;;;4230021;28;20023;-60
2023/01/06 02:57:20;;;;;;;3.97;2.37;;;6.50;99.90;;;;;;4229628;28;20491;-61
2023/01/06 02:59:28;;;;;;;2.80;1.53;;;6.60;99.90;;;;;;4229981;28;20073;-61
2023/01/06 03:01:38;;;;;;;2.17;1.60;;;6.60;99.90;;;;;;4229753;28;20048;-61
2023/01/06 03:03:44;;;;;;;3.20;2.03;;;6.60;99.90;;;;;;4230040;28;20437;-61
2023/01/06 03:05:49;;;;;;;3.90;1.80;;;6.60;99.90;;;;;;4228643;28;20081;-61
2023/01/06 03:07:52;;;;;;;3.27;2.27;;;6.60;99.90;;;;;;4229949;28;20449;-60
2023/01/06 03:09:54;;;;;;;2.40;1.80;;;6.60;99.90;;;;;;4229229;28;20032;-61
2023/01/06 03:11:55;;;;;;;2.97;1.80;;;6.60;99.90;;;;;;4230651;28;20035;-61
2023/01/06 03:14:28;;;;;;;4.63;1.97;;;6.60;99.90;;;;;;4229412;28;20044;-61
2023/01/06 03:16:29;;;;;;;3.63;1.80;;;6.60;99.90;;;;;;4229864;28;20051;-61
2023/01/06 03:18:31;;;;;;;6.63;2.53;;;6.60;99.90;;;;;;4229393;28;20504;-61
2023/01/06 03:20:33;;;;;;;5.33;2.10;;;6.60;99.90;;;;;;4230436;28;20023;-61
2023/01/06 03:22:37;;;;;;;3.90;1.80;;;6.70;99.90;;;;;;4228985;28;20048;-60
2023/01/06 03:24:39;;;;;;;5.17;2.60;;;6.70;99.90;;;;;;4229495;28;20461;-60
2023/01/06 03:26:43;;;;;;;4.53;2.03;;;6.70;99.90;;;;;;4228787;28;20043;-61
2023/01/06 03:28:44;;;;;;;5.00;2.00;;;6.70;99.90;;;;;;4230229;28;20043;-61
2023/01/06 03:30:55;;;;;;;2.00;1.80;;;6.70;99.90;;;;;;4229144;28;20088;-61
2023/01/06 03:33:08;;;;;;;3.90;2.10;;;6.70;99.90;;;;;;4230019;28;20127;-61
2023/01/06 03:35:18;;;;;;;6.37;2.37;;;6.70;99.90;;;;;;4228351;28;20043;-60
2023/01/06 03:37:24;;;;;;;3.70;2.03;;;6.70;99.90;;;;;;4230217;28;20032;-60
2023/01/06 03:39:49;;;;;;;6.63;2.10;;;6.70;99.90;;;;;;4228839;28;20048;-60
2023/01/06 03:44:37;;;;;;;2.33;1.70;;;6.70;99.90;;;;;;4228859;28;20036;-61
2023/01/06 03:46:50;;;;;;;2.47;2.00;;;6.80;99.90;;;;;;4229517;28;20023;-62
2023/01/06 03:49:08;;;;;;;4.70;2.07;;;6.80;99.90;;;;;;4228624;28;20433;-61
2023/01/06 03:51:26;;;;;;;3.23;1.97;;;6.70;99.90;;;;;;4229376;28;20044;-61
2023/01/06 03:53:49;;;;;;;2.67;2.47;;;6.80;99.90;;;;;;4229057;28;20459;-62
2023/01/06 03:56:18;;;;;;;5.30;2.27;;;6.80;99.90;;;;;;4228927;28;20024;-61
2023/01/06 03:58:19;;;;;;;4.23;1.90;;;6.70;99.90;;;;;;4229676;28;20073;-61
2023/01/06 04:00:28;;;;;;;3.63;2.03;;;6.70;99.90;;;;;;4228816;28;20027;-60
2023/01/06 04:02:29;;;;;;;4.20;2.07;;;6.80;99.90;;;;;;4228675;28;20097;-60
2023/01/06 04:04:30;;;;;;;3.63;1.90;;;6.80;99.90;;;;;;4228969;28;20081;-59
2023/01/06 04:06:31;;;;;;;3.43;1.97;;;6.80;99.90;;;;;;4228604;28;20076;-61
2023/01/06 04:08:32;;;;;;;4.07;2.80;;;6.80;99.90;;;;;;4228656;28;20556;-61
2023/01/06 04:10:34;;;;;;;5.33;2.20;;;6.80;99.90;;;;;;4228105;28;20035;-60
2023/01/06 04:12:37;;;;;;;4.63;2.77;;;6.80;99.90;;;;;;4230011;28;20052;-60
2023/01/06 04:14:38;;;;;;;5.60;2.13;;;6.80;99.90;;;;;;4226787;28;20039;-62
2023/01/06 04:16:39;;;;;;;2.70;2.33;;;6.80;99.90;;;;;;4228893;28;20031;-61
2023/01/06 04:18:41;;;;;;;2.20;2.00;;;6.80;99.90;;;;;;4227533;28;20032;-60
2023/01/06 04:20:42;;;;;;;4.80;2.37;;;6.80;99.90;;;;;;4229609;28;20081;-62
2023/01/06 04:22:43;;;;;;;6.83;2.10;;;6.80;99.90;;;;;;4228038;28;20095;-61
2023/01/06 04:24:44;;;;;;;3.23;2.17;;;6.80;99.90;;;;;;4228959;28;20051;-59
2023/01/06 04:26:45;;;;;;;2.60;1.93;;;6.80;99.90;;;;;;4228275;28;20024;-62
2023/01/06 04:28:46;;;;;;;6.00;2.93;;;6.80;99.90;;;;;;4229277;28;20060;-59
2023/01/06 04:30:47;;;;;;;5.70;2.40;;;6.80;99.90;;;;;;4228180;28;20495;-61
2023/01/06 04:32:49;;;;;;;6.10;3.40;;;6.80;99.90;;;;;;4228317;28;20448;-60
2023/01/06 04:34:50;;;;;;;4.67;2.00;;;6.80;99.90;;;;;;4228269;28;20084;-59
2023/01/06 04:36:51;;;;;;;5.23;2.10;;;6.80;99.90;;;;;;4228498;28;20024;-61
2023/01/06 04:38:52;;;;;;;3.00;2.00;;;6.80;99.90;;;;;;4227818;28;20092;-60
2023/01/06 04:40:53;;;;;;;2.30;2.00;;;6.80;99.90;;;;;;4227942;28;20027;-61
2023/01/06 04:43:03;;;;;;;4.77;1.77;;;6.80;99.90;;;;;;4228852;28;20105;-60
2023/01/06 04:45:05;;;;;;;4.80;1.90;;;6.80;99.90;;;;;;4227585;28;20085;-60
2023/01/06 04:47:06;;;;;;;5.10;2.20;;;6.80;99.90;;;;;;4228771;28;20043;-59
2023/01/06 04:49:07;;;;;;;2.90;2.23;;;6.80;99.90;;;;;;4226845;28;20434;-60
2023/01/06 04:51:10;;;;;;;5.47;2.40;;;6.80;99.90;;;;;;4227356;28;20380;-61
2023/01/06 04:53:11;;;;;;;5.23;2.33;;;6.80;99.90;;;;;;4227242;28;20065;-62
2023/01/06 04:55:12;;;;;;;2.70;1.30;;;6.70;99.90;;;;;;4228586;28;20031;-61
2023/01/06 04:57:13;;;;;;;3.80;1.57;;;6.60;99.90;;;;;;4227518;28;20427;-62
2023/01/06 04:59:14;;;;;;;2.33;1.60;;;6.50;99.90;;;;;;4229046;28;20028;-62
2023/01/06 05:01:16;;;;;;;3.27;1.37;;;6.40;99.90;;;;;;4227500;28;20028;-62
2023/01/06 05:03:17;;;;;;;3.03;1.47;;;6.40;99.90;;;;;;4228567;28;20027;-61
2023/01/06 05:05:18;;;;;;;2.73;1.47;;;6.30;99.90;;;;;;4227514;28;20467;-61
2023/01/06 05:07:19;;;;;;;2.37;1.80;;;6.30;99.90;;;;;;4227820;28;20092;-61
2023/01/06 05:09:20;;;;;;;2.07;1.77;;;6.30;99.90;;;;;;4227686;28;20040;-62
2023/01/06 05:11:24;;;;;;;3.67;2.10;;;6.30;99.90;;;;;;4227292;28;20076;-62
2023/01/06 05:13:25;;;;;;;2.73;1.83;;;6.30;99.90;;;;;;4227931;28;20040;-61
2023/01/06 05:15:26;;;;;;;2.43;1.53;;;6.30;99.90;;;;;;4227185;28;20550;-61
2023/01/06 05:17:27;;;;;;;4.90;1.70;;;6.30;99.90;;;;;;4228471;28;20035;-62
2023/01/06 05:19:28;;;;;;;3.27;1.70;;;6.20;99.90;;;;;;4227035;28;20068;-61
2023/01/06 05:21:30;;;;;;;2.80;1.87;;;6.20;99.90;;;;;;4228361;28;20097;-60
2023/01/06 05:23:31;;;;;;;2.07;1.87;;;6.20;99.90;;;;;;4227286;28;20479;-61
2023/01/06 05:25:32;;;;;;;4.60;2.20;;;6.20;99.90;;;;;;4227685;28;20020;-60
2023/01/06 05:27:33;;;;;;;1.60;1.50;;;6.20;99.90;;;;;;4226704;28;20043;-61
2023/01/06 05:29:34;;;;;;;2.87;1.40;;;6.20;99.90;;;;;;4227954;28;20027;-60
2023/01/06 05:31:35;;;;;;;3.90;1.47;;;6.10;99.90;;;;;;4226264;28;20039;-61
2023/01/06 05:33:37;;;;;;;2.67;1.20;;;6.20;99.90;;;;;;4226484;28;20107;-61
2023/01/06 05:35:38;;;;;;;3.27;1.50;;;6.10;99.90;;;;;;4225117;28;20040;-61
2023/01/06 05:37:39;;;;;;;1.73;1.00;;;6.10;99.90;;;;;;4227212;28;20073;-61
2023/01/06 05:39:40;;;;;;;2.13;1.10;;;6.10;99.90;;;;;;4227418;28;20409;-62
2023/01/06 05:41:41;;;;;;;2.70;1.00;;;6.00;99.90;;;;;;4227633;28;20088;-61
2023/01/06 05:43:42;;;;;;;1.23;1.07;;;6.00;99.90;;;;;;4227368;28;20077;-60
2023/01/06 05:45:43;;;;;;;1.43;0.80;;;6.00;99.90;;;;;;4226533;28;20031;-62
2023/01/06 05:47:45;;;;;;;2.30;0.77;;;6.00;99.90;;;;;;4228132;28;20414;-61
2023/01/06 05:49:46;;;;;;;2.07;1.27;;;5.90;99.90;;;;;;4227034;28;20032;-61
2023/01/06 05:51:47;;;;;;;1.83;1.00;;;5.90;99.90;;;;;;4227223;28;20057;-62
2023/01/06 05:53:48;;;;;;;1.97;0.87;;;5.90;99.90;;;;;;4225547;28;20441;-62
2023/01/06 05:55:49;;;;;;;1.23;0.77;;;5.90;99.90;;;;;;4227993;28;20044;-61
2023/01/06 05:57:50;;;;;;;3.97;0.90;;;5.90;99.90;;;;;;4226617;28;20039;-62
2023/01/06 05:59:52;;;;;;;1.97;1.00;;;5.90;99.90;;;;;;4227741;28;20549;-60
2023/01/06 06:01:53;;;;;;;1.70;1.00;;;5.90;99.90;;;;;;4219619;28;20089;-62
2023/01/06 06:03:54;;;;;;;2.03;1.00;;;5.80;99.90;;;;;;4232727;27;20039;-62
2023/01/06 06:06:02;;;;;;;2.77;0.80;;;5.80;99.90;;;;;;4231782;27;20023;-62
2023/01/06 06:08:03;;;;;;;2.03;0.80;;;5.80;99.90;;;;;;4227378;28;20043;-61
2023/01/06 06:10:04;;;;;;;1.70;0.70;;;5.80;99.90;;;;;;4230680;28;20069;-62
2023/01/06 06:12:06;;;;;;;2.83;1.00;;;5.80;99.90;;;;;;4231448;28;20032;-63
2023/01/06 06:14:09;;;;;;;1.77;0.77;;;5.80;99.90;;;;;;4229216;28;20572;-62
2023/01/06 06:16:12;;;;;;;1.40;0.90;;;5.80;99.90;;;;;;4228804;28;20049;-57
2023/01/06 06:18:13;;;;;;;0.90;0.60;;;5.80;99.90;;;;;;4231004;28;20382;-61
2023/01/06 06:20:15;;;;;;;1.90;0.60;;;5.80;99.90;;;;;;4229745;28;20049;-60
2023/01/06 06:22:16;;;;;;;1.30;0.80;;;5.80;99.90;;;;;;4231170;28;20032;-62
2023/01/06 06:24:17;;;;;;;2.03;0.70;;;5.80;99.90;;;;;;4229559;28;20043;-60
2023/01/06 06:26:18;;;;;;;2.23;0.80;;;5.80;99.90;;;;;;4230920;28;20043;-61
2023/01/06 06:28:19;;;;;;;2.80;0.80;;;5.80;99.90;;;;;;4229925;28;20039;-61
2023/01/06 06:30:20;;;;;;;1.63;0.90;;;5.80;99.90;;;;;;4230953;28;20765;-61
2023/01/06 06:32:21;;;;;;;0.93;0.60;;;5.80;99.90;;;;;;4228808;28;20101;-62
2023/01/06 06:34:23;;;;;;;1.57;0.60;;;5.80;99.90;;;;;;4230552;28;20051;-61
2023/01/06 06:36:25;;;;;;;1.80;0.63;;;5.80;99.90;;;;;;4229321;28;20093;-60
2023/01/06 06:38:27;;;;;;;2.60;0.60;;;5.80;99.90;;;;;;4231142;28;20372;-62
2023/01/06 06:40:28;;;;;;;2.10;0.90;;;5.80;99.90;;;;;;4229923;28;20453;-63
2023/01/06 06:42:29;;;;;;;2.10;0.73;;;5.80;99.90;;;;;;4231133;28;20024;-61
2023/01/06 06:44:30;;;;;;;0.80;0.50;;;5.80;99.90;;;;;;4230037;28;20031;-62
2023/01/06 06:46:31;;;;;;;2.47;0.73;;;5.80;99.90;;;;;;4229761;28;20031;-61
2023/01/06 06:48:32;;;;;;;1.20;0.40;;;5.70;99.90;;;;;;4231090;27;20135;-61
2023/01/06 06:50:33;;;;;;;5.10;0.80;;;5.70;99.90;;;;;;4229197;28;20361;-61
2023/01/06 06:52:34;;;;;;;1.67;0.63;;;5.80;99.90;;;;;;4228629;28;20032;-61
2023/01/06 06:54:35;;;;;;;1.57;0.97;;;5.70;99.90;;;;;;4228991;28;20040;-61
2023/01/06 06:56:37;;;;;;;2.00;0.50;;;5.70;99.90;;;;;;4229983;28;20039;-61
2023/01/06 06:58:38;;;;;;;0.93;0.60;;;5.70;99.90;;;;;;4228809;28;20096;-61
2023/01/06 07:00:39;;;;;;;2.90;0.80;;;5.70;99.90;;;;;;4230629;28;20440;-61
2023/01/06 07:02:40;;;;;;;2.43;1.07;;;5.70;99.90;;;;;;4229053;28;20039;-62
2023/01/06 07:04:41;;;;;;;1.53;0.60;;;5.70;99.90;;;;;;4229870;28;20104;-62
2023/01/06 07:06:42;;;;;;;1.13;0.60;;;5.70;99.90;;;;;;4228916;28;20425;-61
2023/01/06 07:08:45;;;;;;;1.87;1.10;;;5.70;99.90;;;;;;4230036;27;20040;-61
2023/01/06 07:10:46;;;;;;;4.87;1.50;;;5.70;99.90;;;;;;4229281;28;20418;-60
2023/01/06 07:12:47;;;;;;;2.17;0.90;;;5.70;99.90;;;;;;4229964;28;20105;-61
2023/01/06 07:14:48;;;;;;;2.60;1.60;;;5.70;99.90;;;;;;4229735;28;20563;-64
2023/01/06 07:16:49;;;;;;;2.67;1.33;;;5.70;99.90;;;;;;4229159;28;20040;-62
2023/01/06 07:18:51;;;;;;;3.30;1.00;;;5.70;99.90;;;;;;4229880;28;20065;-61
2023/01/06 07:20:54;;;;;;;1.60;0.80;;;5.70;99.90;;;;;;4228853;28;20036;-62
2023/01/06 07:22:55;;;;;;;2.73;0.80;;;5.70;99.90;;;;;;4229609;28;20068;-61
2023/01/06 07:24:57;;;;;;;2.53;0.70;;;5.60;99.90;;;;;;4228841;28;20073;-61
2023/01/06 07:26:58;;;;;;;3.83;1.20;;;5.70;99.90;;;;;;4229354;28;20031;-63
2023/01/06 07:28:59;;;;;;;2.57;1.00;;;5.70;99.90;;;;;;4227769;28;20093;-62
2023/01/06 07:31:00;;;;;;;3.07;0.90;;;5.70;99.90;;;;;;4229789;28;20084;-62
2023/01/06 07:33:02;;;;;;;1.53;0.70;;;5.70;99.90;;;;;;4228733;28;20047;-63
2023/01/06 07:35:04;;;;;;;6.13;1.10;;;5.70;99.90;;;;;;4225722;27;20105;-62
2023/01/06 07:37:05;;;;;;;5.20;0.83;;;5.70;99.90;;;;;;4238177;27;20044;-63
2023/01/06 07:39:06;;;;;;;4.97;1.30;;;5.80;99.90;;;;;;4229759;28;20081;-62
2023/01/06 07:41:07;;;;;;;1.57;0.70;;;5.80;99.90;;;;;;4228150;28;20028;-61
2023/01/06 07:43:10;;;;;;;1.80;0.63;;;5.80;99.90;;;;;;4230085;28;20027;-63
2023/01/06 07:45:11;;;;;;;1.67;0.80;;;5.80;99.90;;;;;;4228868;28;20076;-61
2023/01/06 07:47:13;;;;;;;4.40;0.83;;;5.80;99.90;;;;;;4229039;28;20105;-61
2023/01/06 07:49:15;;;;;;;1.13;0.63;;;5.80;99.90;;;;;;4229155;28;20028;-62
2023/01/06 07:51:16;;;;;;;2.93;0.80;;;5.80;99.90;;;;;;4228657;28;20036;-63
2023/01/06 07:53:17;;;;;;;1.90;0.90;;;5.80;99.90;;;;;;4229165;28;20031;-61
2023/01/06 07:55:18;;;;;;;1.63;0.90;;;5.80;99.90;;;;;;4228291;28;20051;-61
2023/01/06 07:57:19;;;;;;;6.00;0.77;;;5.80;99.90;;;;;;4229067;28;20502;-63
2023/01/06 07:59:20;;;;;;;3.10;1.33;;;5.80;99.90;;;;;;4228428;28;20039;-64
2023/01/06 08:01:21;;;;;;;2.50;1.60;;;5.80;99.90;;;;;;4229686;28;20073;-62
2023/01/06 08:03:23;;;;;;;1.77;0.77;;;5.80;99.90;;;;;;4228368;28;20567;-62
2023/01/06 08:05:24;;;;;;;2.93;1.20;;;5.90;99.90;;;;;;4229608;28;20035;-61
2023/01/06 08:07:25;;;;;;;1.53;0.83;;;5.90;99.90;;;;;;4228718;27;20040;-62
2023/01/06 08:09:26;;;;;;;1.07;0.80;;;5.90;99.90;;;;;;4229593;28;20035;-63
2023/01/06 08:11:27;;;;;;;1.73;0.63;;;5.90;99.90;;;;;;4228281;28;20028;-62
2023/01/06 08:13:29;;;;;;;5.13;1.00;;;5.90;99.90;;;;;;4229577;28;20486;-63
2023/01/06 08:15:30;;;;;;;3.63;1.33;;;6.00;99.90;;;;;;4228567;28;20654;-60
2023/01/06 08:17:31;;;;;;;3.57;0.90;;;6.00;99.90;;;;;;4228483;28;20092;-63
2023/01/06 08:19:32;;;;;;;3.77;1.20;;;6.00;99.90;;;;;;4228602;28;20032;-62
2023/01/06 08:21:34;;;;;;;3.33;0.70;;;6.00;99.90;;;;;;4226576;28;20576;-59
2023/01/06 08:23:35;;;;;;;1.67;0.50;;;6.00;99.90;;;;;;4221340;27;20032;-59
2023/01/06 08:25:37;;;;;;;3.10;0.93;;;6.00;99.90;;;;;;4210069;28;20024;-64
2023/01/06 08:27:38;;;;;;;1.17;0.40;;;6.00;99.90;;;;;;4211373;28;20475;-61
2023/01/06 08:29:39;;;;;;;1.50;0.60;;;6.00;99.90;;;;;;4215488;28;20069;-59
2023/01/06 08:31:40;;;;;;;2.50;0.60;;;6.00;99.90;;;;;;4228395;28;20035;-67
2023/01/06 08:33:41;;;;;;;11.10;1.23;;;6.00;99.90;;;;;;4227164;28;20036;-60
2023/01/06 08:35:45;;;;;;;4.23;0.80;;;6.00;99.90;;;;;;4228393;28;20043;-58
2023/01/06 08:37:46;;;;;;;2.77;0.60;;;6.00;99.90;;;;;;4226552;28;20140;-62
2023/01/06 08:39:47;;;;;;;4.10;1.87;;;6.00;99.90;;;;;;4227518;28;20499;-59
2023/01/06 08:41:50;;;;;;;4.60;2.40;;;6.00;99.90;;;;;;4226511;28;20028;-68
2023/01/06 08:43:53;;;;;;;10.93;4.87;;;6.00;99.90;;;;;;4228837;28;20092;-63
2023/01/06 08:46:06;;;;;;;6.90;3.10;;;6.10;99.90;;;;;;4226822;28;20039;-59
2023/01/06 08:48:07;;;;;;;8.23;2.40;;;6.00;99.90;;;;;;4227639;28;20479;-58
2023/01/06 08:50:08;;;;;;;3.60;1.10;;;6.00;99.90;;;;;;4227257;28;20088;-61
2023/01/06 08:52:09;;;;;;;3.23;1.60;;;6.10;99.90;;;;;;4218377;28;20465;-61
2023/01/06 08:54:10;;;;;;;10.00;1.37;;;6.00;99.90;;;;;;4227272;28;20059;-64
2023/01/06 08:56:18;;;;;;;3.30;0.90;;;6.00;99.90;;;;;;4227724;28;20088;-63
2023/01/06 08:58:19;;;;;;;12.00;6.47;;;6.00;99.90;;;;;;4228094;28;20028;-61
2023/01/06 09:00:20;;;;;;;5.73;3.63;;;6.00;99.90;;;;;;4226461;28;20092;-68
2023/01/06 09:02:21;;;;;;;6.67;3.43;;;6.00;99.90;;;;;;4227180;27;20042;-65
2023/01/06 09:04:23;;;;;;;2.00;1.57;;;6.00;99.90;;;;;;4224851;28;20097;-65
2023/01/06 09:06:24;;;;;;;2.20;1.00;;;6.00;99.90;;;;;;4227869;28;20036;-66
2023/01/06 09:08:25;;;;;;;1.57;0.77;;;6.00;99.90;;;;;;4227294;28;20433;-68
2023/01/06 09:10:26;;;;;;;2.03;1.40;;;6.00;99.90;;;;;;4228531;28;20533;-64
2023/01/06 09:12:27;;;;;;;7.47;3.10;;;6.00;99.90;;;;;;4226229;28;20031;-68
2023/01/06 09:14:29;;;;;;;3.07;1.70;;;6.00;99.90;;;;;;4227843;28;20495;-62
2023/01/06 09:16:30;;;;;;;9.47;3.80;;;6.00;99.90;;;;;;4226687;28;20035;-62
2023/01/06 09:18:31;;;;;;;5.90;3.97;;;6.00;99.90;;;;;;4227729;28;20076;-69
2023/01/06 09:20:32;;;;;;;11.63;6.90;;;6.10;99.90;;;;;;4226524;28;20039;-66
2023/01/06 09:22:33;;;;;;;6.53;4.13;;;6.10;99.90;;;;;;4228003;28;20076;-66
2023/01/06 09:24:34;;;;;;;9.10;4.17;;;6.10;99.90;;;;;;4227442;28;20036;-64
2023/01/06 09:26:35;;;;;;;8.50;4.30;;;6.10;99.90;;;;;;4227329;28;20096;-59
2023/01/06 09:28:37;;;;;;;8.27;3.90;;;6.10;99.90;;;;;;4227565;28;20024;-61
2023/01/06 09:30:39;;;;;;;4.13;2.63;;;6.20;99.90;;;;;;4226331;28;20437;-61
2023/01/06 09:32:40;;;;;;;5.63;2.10;;;6.10;99.90;;;;;;4225978;28;20515;-61
2023/01/06 09:34:41;;;;;;;8.10;2.13;;;6.20;99.90;;;;;;4226680;28;20039;-56
2023/01/06 09:36:42;;;;;;;3.27;1.53;;;6.20;99.90;;;;;;4227182;28;20044;-65
2023/01/06 09:38:43;;;;;;;4.03;2.60;;;6.20;99.90;;;;;;4226993;28;20032;-66
2023/01/06 09:41:08;;;;;;;4.37;1.60;;;6.20;99.90;;;;;;4227963;28;20541;-64
2023/01/06 09:43:15;;;;;;;2.33;1.13;;;6.20;99.90;;;;;;4227014;28;20039;-60
2023/01/06 09:45:19;;;;;;;4.07;1.40;;;6.20;99.90;;;;;;4227470;28;20471;-63
2023/01/06 09:47:31;;;;;;;4.60;1.20;;;6.20;99.90;;;;;;4229227;27;20039;-65
2023/01/06 09:49:45;;;;;;;2.80;1.30;;;6.30;99.90;;;;;;4244791;27;20084;-61
2023/01/06 09:51:46;;;;;;;0.77;0.60;;;6.20;99.90;;;;;;4243487;28;20019;-59
2023/01/06 09:53:55;;;;;;;3.17;0.73;;;6.20;99.90;;;;;;4244247;28;20429;-64
2023/01/06 09:56:02;;;;;;;2.80;1.20;;;6.20;99.90;;;;;;4242991;28;20061;-62
2023/01/06 09:58:44;;;;;;;2.07;0.90;;;6.20;99.90;;;;;;4244158;28;20043;-63
2023/01/06 10:00:51;;;;;;;2.30;1.00;;;6.20;99.90;;;;;;4212680;27;20578;-63
2023/01/06 10:02:52;;;;;;;2.10;0.90;;;6.20;99.90;;;;;;4244712;28;20027;-65
2023/01/06 10:04:54;;;;;;;1.07;0.60;;;6.20;99.90;;;;;;4243621;28;20031;-60
2023/01/06 10:07:23;;;;;;;1.77;0.90;;;6.20;99.90;;;;;;4236467;28;20108;-64
2023/01/06 10:09:53;;;;;;;2.13;1.10;;;6.20;99.90;;;;;;4226122;28;20809;-62
2023/01/06 10:12:42;;;;;;;3.22;1.13;;;6.30;99.90;;;;;;4213964;28;20047;-62
2023/01/06 10:14:57;;;;;;;1.57;0.80;;;6.40;99.90;;;;;;4227688;28;20475;-60
2023/01/06 10:17:37;;;;;;;2.13;1.00;;;6.40;99.90;;;;;;4226481;28;20092;-64
2023/01/06 10:20:22;;;;;;;2.97;1.30;;;6.40;99.90;;;;;;4164973;28;20092;-63
2023/01/06 10:22:52;;;;;;;3.57;1.70;;;6.40;99.90;;;;;;4131379;28;20112;-61
2023/01/06 10:25:12;;;;;;;2.47;1.58;;;6.50;99.90;;;;;;4142391;28;20621;-61
2023/01/06 10:27:31;;;;;;;1.73;1.17;;;6.50;99.90;;;;;;4163432;28;20040;-59
2023/01/06 10:29:36;;;;;;;2.93;1.57;;;6.50;99.90;;;;;;4213260;28;20081;-61
2023/01/06 10:31:40;;;;;;;4.17;2.17;;;6.50;99.90;;;;;;4226116;28;20045;-60
2023/01/06 10:33:50;;;;;;;3.47;1.40;;;6.50;99.90;;;;;;4226311;28;20156;-61
2023/01/06 10:35:54;;;;;;;15.05;2.13;;;6.50;99.90;;;;;;4226373;28;20452;-60
2023/01/06 10:37:57;;;;;;;3.03;1.50;;;6.50;99.90;;;;;;4226682;28;20161;-61
2023/01/06 10:40:10;;;;;;;6.83;1.30;;;6.50;99.90;;;;;;4226436;28;20069;-64
2023/01/06 10:42:55;;;;;;;3.90;0.80;;;6.50;99.90;;;;;;4227355;28;20027;-61
2023/01/06 10:44:56;;;;;;;2.53;1.03;;;6.50;99.90;;;;;;4227557;28;20088;-63
2023/01/06 10:46:57;;;;;;;1.00;0.80;;;6.50;99.90;;;;;;4225490;28;20096;-59
2023/01/06 10:48:58;;;;;;;2.47;0.87;;;6.50;99.90;;;;;;4228284;28;20496;-60
2023/01/06 10:51:25;;;;;;;1.23;0.60;;;6.50;99.90;;;;;;4229113;28;20092;-60
2023/01/06 10:53:26;;;;;;;1.53;0.80;;;6.50;99.90;;;;;;4229660;28;20432;-61
2023/01/06 10:55:37;;;;;;;2.90;1.20;;;6.40;99.90;;;;;;4229006;28;20207;-60
2023/01/06 10:57:40;;;;;;;2.27;1.10;;;6.50;99.90;;;;;;4229715;28;20084;-61
2023/01/06 11:00:12;;;;;;;4.27;1.20;;;6.50;99.90;;;;;;4229146;28;20437;-61
2023/01/06 11:02:21;;;;;;;2.17;0.97;;;6.50;99.90;;;;;;4230117;28;20020;-62
2023/01/06 11:04:27;;;;;;;1.63;1.30;;;6.50;99.90;;;;;;4227801;28;20039;-62
2023/01/06 11:06:29;;;;;;;3.17;1.00;;;6.50;99.90;;;;;;4229763;28;20418;-65